Time;durP1;ratioP1;P1;durP2;ratioP2;P2;SDS_P1;SDS_P2;PMS_P1;PMS_P2;Temp;Humidity;BMP_temperature;BMP_pressure;BME280_temperature;BME280_humidity;BME280_pressure;Samples;Min_cycle;Max_cycle;Signal;HPM_P1;HPM_P2
2022/02/22 00:01:31;;;;;;;13.98;2.85;;;;;;;;;;5170776;27;20228;-77
2022/02/22 00:03:57;;;;;;;16.40;3.40;;;;;;;;;;5096730;27;20198;-75
2022/02/22 00:06:23;;;;;;;30.43;6.10;;;;;;;;;;5086523;28;20219;-76
2022/02/22 00:08:49;;;;;;;13.27;3.90;;;;;;;;;;5142280;27;20450;-75
2022/02/22 00:11:15;;;;;;;16.98;4.38;;;;;;;;;;5146879;27;20445;-75
2022/02/22 00:13:41;;;;;;;16.80;3.03;;;;;;;;;;5090175;27;20632;-77
2022/02/22 00:19:24;;;;;;;21.50;4.32;;;;;;;;;;5193044;27;20485;-76
2022/02/22 00:21:51;;;;;;;29.63;4.03;;;;;;;;;;5187727;27;20188;-76
2022/02/22 00:24:17;;;;;;;12.55;3.53;;;;;;;;;;5190980;27;20263;-75
2022/02/22 00:26:43;;;;;;;20.00;3.85;;;;;;;;;;5173713;27;20722;-76
2022/02/22 00:29:09;;;;;;;28.42;5.03;;;;;;;;;;5149865;27;20201;-76
2022/02/22 00:31:35;;;;;;;12.98;3.00;;;;;;;;;;5133840;27;20276;-78
2022/02/22 00:34:05;;;;;;;21.00;3.55;;;;;;;;;;5117657;27;20184;-76
2022/02/22 00:36:33;;;;;;;25.33;4.53;;;;;;;;;;5095193;28;20204;-77
2022/02/22 00:38:59;;;;;;;21.35;3.90;;;;;;;;;;5115396;28;20219;-75
2022/02/22 00:41:25;;;;;;;21.35;6.35;;;;;;;;;;5095293;28;20187;-77
2022/02/22 00:45:19;;;;;;;20.80;4.43;;;;;;;;;;5187842;27;21005;-76
2022/02/22 00:47:45;;;;;;;22.30;5.28;;;;;;;;;;5187701;27;20184;-77
2022/02/22 00:50:11;;;;;;;15.52;4.20;;;;;;;;;;5192069;27;20195;-78
2022/02/22 00:52:37;;;;;;;31.10;4.77;;;;;;;;;;5189671;27;20553;-77
2022/02/22 00:55:03;;;;;;;31.58;4.45;;;;;;;;;;5153192;27;20429;-75
2022/02/22 00:57:29;;;;;;;20.17;3.63;;;;;;;;;;5140792;27;20265;-77
2022/02/22 00:59:55;;;;;;;20.70;4.67;;;;;;;;;;5172016;27;20280;-77
2022/02/22 01:02:21;;;;;;;16.33;4.95;;;;;;;;;;5180808;27;20438;-77
2022/02/22 01:04:47;;;;;;;19.48;4.93;;;;;;;;;;5143335;27;20219;-77
2022/02/22 01:09:52;;;;;;;36.97;6.82;;;;;;;;;;5192981;27;20995;-78
2022/02/22 01:12:18;;;;;;;11.65;2.15;;;;;;;;;;5170039;27;20205;-76
2022/02/22 01:14:44;;;;;;;23.80;4.75;;;;;;;;;;5186925;27;20185;-76
2022/02/22 01:17:10;;;;;;;29.90;4.28;;;;;;;;;;5149482;27;20202;-76
2022/02/22 01:19:36;;;;;;;19.17;4.70;;;;;;;;;;5108565;27;20197;-77
2022/02/22 01:22:03;;;;;;;18.10;3.83;;;;;;;;;;5052407;28;20278;-76
2022/02/22 01:24:29;;;;;;;19.88;6.07;;;;;;;;;;5099303;28;20185;-76
2022/02/22 01:26:55;;;;;;;19.37;4.20;;;;;;;;;;5085256;28;20215;-75
2022/02/22 01:29:21;;;;;;;21.13;3.70;;;;;;;;;;5016089;28;20474;-77
2022/02/22 01:34:26;;;;;;;27.95;5.13;;;;;;;;;;5193178;27;20490;-75
2022/02/22 01:36:52;;;;;;;23.15;4.60;;;;;;;;;;5160339;27;20312;-77
2022/02/22 01:39:18;;;;;;;25.17;4.82;;;;;;;;;;5168800;27;20260;-77
2022/02/22 01:41:44;;;;;;;28.30;5.00;;;;;;;;;;5167373;27;20581;-75
2022/02/22 01:44:11;;;;;;;22.38;3.97;;;;;;;;;;5094840;28;20761;-75
2022/02/22 01:46:37;;;;;;;24.30;5.07;;;;;;;;;;5067481;28;20207;-75
2022/02/22 01:49:03;;;;;;;26.08;4.38;;;;;;;;;;5104124;28;20263;-75
2022/02/22 01:51:29;;;;;;;23.00;3.70;;;;;;;;;;5047133;28;20205;-74
2022/02/22 01:53:55;;;;;;;19.45;3.85;;;;;;;;;;5001289;28;20239;-75
2022/02/22 01:59:22;;;;;;;31.25;5.30;;;;;;;;;;5192741;27;21023;-75
2022/02/22 02:01:48;;;;;;;22.13;4.18;;;;;;;;;;5187162;27;20183;-76
2022/02/22 02:04:14;;;;;;;24.17;3.70;;;;;;;;;;5192138;27;20187;-75
2022/02/22 02:06:40;;;;;;;23.25;4.20;;;;;;;;;;5174388;27;20571;-77
2022/02/22 02:09:07;;;;;;;25.00;4.55;;;;;;;;;;5140897;27;20196;-75
2022/02/22 02:11:52;;;;;;;9.88;2.78;;;;;;;;;;5112646;28;20191;-76
2022/02/22 02:14:18;;;;;;;28.20;4.70;;;;;;;;;;5123472;28;20265;-76
2022/02/22 02:16:44;;;;;;;35.67;5.63;;;;;;;;;;5059530;28;20247;-76
2022/02/22 02:19:11;;;;;;;25.60;6.15;;;;;;;;;;5033040;28;20817;-77
2022/02/22 02:24:33;;;;;;;22.83;5.40;;;;;;;;;;5150965;27;21041;-75
2022/02/22 02:26:59;;;;;;;25.73;4.78;;;;;;;;;;5126640;28;20219;-75
2022/02/22 02:29:27;;;;;;;22.38;4.68;;;;;;;;;;5129562;28;20191;-76
2022/02/22 02:31:53;;;;;;;28.67;5.43;;;;;;;;;;5125554;28;20624;-77
2022/02/22 02:34:22;;;;;;;25.55;5.63;;;;;;;;;;5082242;28;20194;-76
2022/02/22 02:36:48;;;;;;;38.78;6.03;;;;;;;;;;4996171;28;20222;-75
2022/02/22 02:39:14;;;;;;;28.98;5.13;;;;;;;;;;4997573;28;20551;-77
2022/02/22 02:41:41;;;;;;;36.63;4.82;;;;;;;;;;5030151;28;20189;-77
2022/02/22 02:44:10;;;;;;;28.20;3.72;;;;;;;;;;4979396;28;20278;-76
2022/02/22 02:49:14;;;;;;;26.85;4.45;;;;;;;;;;5193004;27;20828;-75
2022/02/22 02:51:40;;;;;;;24.42;4.15;;;;;;;;;;5187791;27;20188;-78
2022/02/22 02:54:06;;;;;;;25.65;6.43;;;;;;;;;;5173646;27;20595;-76
2022/02/22 02:56:32;;;;;;;25.75;6.47;;;;;;;;;;5125997;27;20233;-77
2022/02/22 02:59:01;;;;;;;20.03;4.90;;;;;;;;;;5046119;28;20683;-75
2022/02/22 03:01:28;;;;;;;35.88;5.97;;;;;;;;;;4966094;28;20437;-75
2022/02/22 03:03:55;;;;;;;33.33;5.82;;;;;;;;;;4997483;28;20206;-77
2022/02/22 03:06:21;;;;;;;26.80;4.57;;;;;;;;;;4958749;28;20214;-75
2022/02/22 03:08:47;;;;;;;39.42;4.63;;;;;;;;;;4902078;29;20224;-76
2022/02/22 03:13:46;;;;;;;21.35;4.30;;;;;;;;;;5192823;27;20619;-77
2022/02/22 03:16:12;;;;;;;15.20;4.28;;;;;;;;;;5174606;27;20245;-76
2022/02/22 03:18:38;;;;;;;21.65;4.10;;;;;;;;;;5170940;27;20186;-77
2022/02/22 03:21:05;;;;;;;24.15;4.13;;;;;;;;;;5168961;27;20283;-78
2022/02/22 03:23:31;;;;;;;28.10;5.22;;;;;;;;;;5115034;28;20541;-77
2022/02/22 03:25:58;;;;;;;29.65;4.45;;;;;;;;;;5099931;28;20245;-76
2022/02/22 03:28:24;;;;;;;25.33;5.82;;;;;;;;;;5074813;28;20589;-77
2022/02/22 03:30:50;;;;;;;33.47;7.68;;;;;;;;;;4984734;28;20201;-78
2022/02/22 03:33:16;;;;;;;17.48;4.15;;;;;;;;;;5030942;28;20541;-76
2022/02/22 03:38:28;;;;;;;23.27;5.75;;;;;;;;;;5192983;27;20846;-77
2022/02/22 03:40:54;;;;;;;28.77;4.72;;;;;;;;;;5187150;27;20200;-77
2022/02/22 03:43:20;;;;;;;22.97;5.63;;;;;;;;;;5192309;27;20204;-75
2022/02/22 03:45:46;;;;;;;41.23;6.33;;;;;;;;;;5182089;27;20521;-75
2022/02/22 03:48:12;;;;;;;24.30;4.70;;;;;;;;;;5127732;27;20469;-76
2022/02/22 03:50:38;;;;;;;30.70;4.87;;;;;;;;;;5048417;28;20192;-75
2022/02/22 03:53:04;;;;;;;20.67;5.33;;;;;;;;;;5004268;28;20474;-76
2022/02/22 03:55:30;;;;;;;28.42;4.50;;;;;;;;;;4963768;28;20928;-78
2022/02/22 03:57:56;;;;;;;29.90;5.10;;;;;;;;;;4972413;28;20221;-77
2022/02/22 04:03:03;;;;;;;25.75;5.30;;;;;;;;;;5192953;27;20508;-75
2022/02/22 04:05:30;;;;;;;30.80;6.43;;;;;;;;;;5181412;27;20791;-76
2022/02/22 04:07:56;;;;;;;18.80;5.07;;;;;;;;;;5151875;27;20275;-77
2022/02/22 04:10:22;;;;;;;23.25;4.68;;;;;;;;;;5148284;27;20197;-78
2022/02/22 04:12:48;;;;;;;20.35;4.10;;;;;;;;;;5161238;27;20243;-76
2022/02/22 04:15:14;;;;;;;27.30;5.43;;;;;;;;;;5087966;28;20635;-75
2022/02/22 04:17:40;;;;;;;22.35;4.55;;;;;;;;;;5084225;28;20281;-77
2022/02/22 04:20:07;;;;;;;20.35;3.80;;;;;;;;;;5040999;28;20205;-77
2022/02/22 04:22:33;;;;;;;33.97;5.10;;;;;;;;;;5038093;28;20221;-77
2022/02/22 04:28:13;;;;;;;35.50;5.88;;;;;;;;;;5192860;27;20486;-77
2022/02/22 04:30:39;;;;;;;25.93;5.03;;;;;;;;;;5169881;27;20203;-76
2022/02/22 04:33:05;;;;;;;25.67;5.00;;;;;;;;;;5154221;27;20499;-77
2022/02/22 04:35:31;;;;;;;23.58;6.60;;;;;;;;;;5117015;28;20453;-77
2022/02/22 04:37:57;;;;;;;31.00;6.20;;;;;;;;;;5074177;28;20203;-76
2022/02/22 04:40:23;;;;;;;26.48;4.80;;;;;;;;;;5106232;28;20423;-77
2022/02/22 04:42:49;;;;;;;27.02;5.30;;;;;;;;;;5076213;28;20208;-78
2022/02/22 04:45:16;;;;;;;20.33;4.40;;;;;;;;;;5067193;28;20670;-76
2022/02/22 04:47:41;;;;;;;28.98;5.25;;;;;;;;;;5103293;27;20298;-77
2022/02/22 04:53:26;;;;;;;28.25;6.35;;;;;;;;;;5192335;27;20504;-77
2022/02/22 04:55:52;;;;;;;30.23;5.35;;;;;;;;;;5177626;27;20684;-77
2022/02/22 04:58:18;;;;;;;29.33;5.50;;;;;;;;;;5111616;28;20256;-76
2022/02/22 05:00:46;;;;;;;19.13;3.85;;;;;;;;;;5146089;27;20467;-77
2022/02/22 05:03:13;;;;;;;35.00;5.28;;;;;;;;;;5122231;28;20585;-76
2022/02/22 05:05:39;;;;;;;27.55;4.63;;;;;;;;;;5140486;27;20262;-77
2022/02/22 05:08:05;;;;;;;31.05;5.90;;;;;;;;;;5115110;27;22689;-75
2022/02/22 05:10:31;;;;;;;21.80;4.97;;;;;;;;;;5080558;28;20283;-75
2022/02/22 05:12:56;;;;;;;33.17;6.90;;;;;;;;;;5050958;28;20212;-77
2022/02/22 05:17:54;;;;;;;28.02;6.40;;;;;;;;;;5193078;27;20473;-76
2022/02/22 05:20:20;;;;;;;36.33;6.47;;;;;;;;;;5187683;27;20524;-76
2022/02/22 05:22:46;;;;;;;26.65;4.97;;;;;;;;;;5186522;27;20443;-77
2022/02/22 05:25:14;;;;;;;24.50;4.90;;;;;;;;;;5165892;27;20215;-77
2022/02/22 05:27:40;;;;;;;44.60;6.15;;;;;;;;;;5079543;28;20200;-76
2022/02/22 05:30:06;;;;;;;25.38;4.50;;;;;;;;;;5093084;28;20184;-77
2022/02/22 05:32:33;;;;;;;30.67;5.53;;;;;;;;;;5100607;28;20301;-76
2022/02/22 05:34:59;;;;;;;26.65;5.25;;;;;;;;;;5083781;28;20287;-76
2022/02/22 05:37:25;;;;;;;28.30;5.10;;;;;;;;;;5033437;28;20683;-77
2022/02/22 05:42:50;;;;;;;28.38;5.07;;;;;;;;;;5192226;27;20492;-75
2022/02/22 05:45:16;;;;;;;24.95;3.97;;;;;;;;;;5182985;27;20220;-75
2022/02/22 05:47:42;;;;;;;29.35;5.40;;;;;;;;;;5171069;27;20277;-78
2022/02/22 05:50:08;;;;;;;28.38;5.68;;;;;;;;;;5142882;27;20206;-77
2022/02/22 05:52:34;;;;;;;33.88;5.43;;;;;;;;;;5066603;28;20208;-77
2022/02/22 05:55:00;;;;;;;33.77;7.03;;;;;;;;;;5053989;28;20575;-77
2022/02/22 05:57:27;;;;;;;21.13;5.07;;;;;;;;;;5027881;28;20449;-77
2022/02/22 05:59:53;;;;;;;30.45;5.68;;;;;;;;;;5011459;28;20818;-75
2022/02/22 06:02:19;;;;;;;18.92;3.90;;;;;;;;;;4951570;28;20223;-76
2022/02/22 06:07:48;;;;;;;28.10;5.55;;;;;;;;;;5193103;27;20473;-77
2022/02/22 06:10:15;;;;;;;29.70;4.30;;;;;;;;;;5187224;27;20189;-76
2022/02/22 06:12:44;;;;;;;21.83;5.20;;;;;;;;;;5187056;27;20526;-80
2022/02/22 06:15:10;;;;;;;27.08;5.43;;;;;;;;;;5166091;27;20215;-75
2022/02/22 06:17:43;;;;;;;24.43;6.60;;;;;;;;;;5126157;27;20188;-76
2022/02/22 06:20:32;;;;;;;28.08;6.43;;;;;;;;;;5078541;28;20421;-75
2022/02/22 06:22:58;;;;;;;20.73;4.93;;;;;;;;;;4994230;28;20209;-76
2022/02/22 06:25:26;;;;;;;33.58;4.60;;;;;;;;;;4953716;28;20905;-79
2022/02/22 06:27:53;;;;;;;24.45;4.22;;;;;;;;;;5013350;28;20188;-75
2022/02/22 06:32:45;;;;;;;25.45;5.28;;;;;;;;;;5192559;27;20306;-76
2022/02/22 06:35:11;;;;;;;36.28;5.05;;;;;;;;;;5183651;27;20687;-77
2022/02/22 06:37:37;;;;;;;30.15;5.85;;;;;;;;;;5170985;27;20204;-76
2022/02/22 06:40:05;;;;;;;27.63;5.85;;;;;;;;;;5170796;27;20541;-76
2022/02/22 06:42:31;;;;;;;23.35;4.25;;;;;;;;;;5112485;28;20284;-75
2022/02/22 06:44:57;;;;;;;21.73;5.03;;;;;;;;;;5129673;27;20199;-75
2022/02/22 06:47:23;;;;;;;24.55;4.35;;;;;;;;;;5145376;27;23414;-76
2022/02/22 06:49:49;;;;;;;20.83;4.20;;;;;;;;;;5129071;27;20220;-75
2022/02/22 06:52:16;;;;;;;24.73;4.93;;;;;;;;;;5160613;27;20220;-75
2022/02/22 06:57:26;;;;;;;27.83;4.70;;;;;;;;;;5176244;27;20324;-74
2022/02/22 06:59:52;;;;;;;16.85;4.38;;;;;;;;;;5136266;27;20197;-77
2022/02/22 07:02:18;;;;;;;18.83;4.43;;;;;;;;;;5192223;27;20195;-78
2022/02/22 07:04:44;;;;;;;24.17;3.87;;;;;;;;;;5163433;27;20640;-77
2022/02/22 07:07:10;;;;;;;12.82;4.50;;;;;;;;;;5070778;28;20434;-77
2022/02/22 07:09:36;;;;;;;26.57;4.97;;;;;;;;;;5038269;28;20207;-77
2022/02/22 07:12:02;;;;;;;21.10;4.53;;;;;;;;;;5041804;28;20933;-76
2022/02/22 07:14:28;;;;;;;15.07;3.85;;;;;;;;;;5078432;28;20203;-77
2022/02/22 07:16:57;;;;;;;12.82;4.35;;;;;;;;;;5073336;28;20222;-75
2022/02/22 07:22:39;;;;;;;20.23;4.65;;;;;;;;;;5193000;27;20481;-76
2022/02/22 07:25:06;;;;;;;25.30;4.63;;;;;;;;;;5184436;27;20213;-77
2022/02/22 07:27:32;;;;;;;18.85;4.15;;;;;;;;;;5170984;27;20184;-76
2022/02/22 07:29:58;;;;;;;27.50;5.00;;;;;;;;;;5108381;28;20195;-76
2022/02/22 07:32:24;;;;;;;23.57;5.37;;;;;;;;;;5059288;28;20457;-75
2022/02/22 07:34:50;;;;;;;20.50;4.95;;;;;;;;;;5033470;28;20427;-78
2022/02/22 07:37:16;;;;;;;20.02;4.90;;;;;;;;;;5022240;28;20629;-78
2022/02/22 07:39:42;;;;;;;25.13;4.40;;;;;;;;;;4952969;28;20213;-77
2022/02/22 07:42:08;;;;;;;32.20;5.33;;;;;;;;;;4937133;28;20512;-75
2022/02/22 07:47:50;;;;;;;17.00;4.10;;;;;;;;;;5191155;27;20488;-76
2022/02/22 07:50:17;;;;;;;29.75;5.50;;;;;;;;;;5187675;27;20185;-76
2022/02/22 07:52:43;;;;;;;27.13;4.75;;;;;;;;;;5192166;27;20625;-76
2022/02/22 07:55:09;;;;;;;17.70;4.82;;;;;;;;;;5187551;27;20634;-78
2022/02/22 07:57:35;;;;;;;25.23;5.95;;;;;;;;;;5161728;27;20202;-75
2022/02/22 08:00:01;;;;;;;15.48;5.13;;;;;;;;;;5161488;27;20533;-75
2022/02/22 08:02:27;;;;;;;24.05;4.65;;;;;;;;;;5166303;27;20193;-77
2022/02/22 08:04:53;;;;;;;25.50;6.07;;;;;;;;;;5085439;27;20201;-76
2022/02/22 08:07:21;;;;;;;13.63;5.37;;;;;;;;;;5046764;28;20579;-75
2022/02/22 08:09:47;;;;;;;14.88;4.50;;;;;;;;;;5047851;28;20416;-77
2022/02/22 08:13:31;;;;;;;22.15;5.20;;;;;;;;;;5193026;27;20481;-78
2022/02/22 08:15:57;;;;;;;17.97;5.23;;;;;;;;;;5160154;27;20578;-76
2022/02/22 08:18:23;;;;;;;16.33;4.88;;;;;;;;;;5171373;27;20432;-75
2022/02/22 08:20:49;;;;;;;24.57;4.97;;;;;;;;;;5128803;27;20205;-77
2022/02/22 08:23:15;;;;;;;17.77;5.63;;;;;;;;;;5087519;28;20431;-76
2022/02/22 08:25:42;;;;;;;12.80;5.07;;;;;;;;;;5086101;28;20485;-76
2022/02/22 08:28:11;;;;;;;18.88;4.60;;;;;;;;;;5122643;28;20501;-77
2022/02/22 08:30:38;;;;;;;23.80;5.05;;;;;;;;;;5070124;28;20192;-76
2022/02/22 08:33:05;;;;;;;19.67;4.72;;;;;;;;;;4996325;28;20271;-76
2022/02/22 08:38:14;;;;;;;21.00;5.55;;;;;;;;;;5193039;27;20997;-77
2022/02/22 08:40:40;;;;;;;21.88;4.85;;;;;;;;;;5187918;27;20688;-77
2022/02/22 08:43:06;;;;;;;13.90;4.95;;;;;;;;;;5172519;27;20193;-76
2022/02/22 08:45:32;;;;;;;13.03;7.70;;;;;;;;;;5177966;27;20207;-77
2022/02/22 08:47:58;;;;;;;15.13;7.37;;;;;;;;;;5112696;28;20765;-75
2022/02/22 08:50:24;;;;;;;12.88;6.28;;;;;;;;;;5101583;28;20486;-75
2022/02/22 08:52:50;;;;;;;22.35;7.40;;;;;;;;;;5130470;27;20305;-75
2022/02/22 08:55:16;;;;;;;12.35;6.80;;;;;;;;;;5096903;27;20201;-77
2022/02/22 08:57:42;;;;;;;17.38;7.50;;;;;;;;;;5047338;28;20217;-75
2022/02/22 09:02:46;;;;;;;19.17;7.25;;;;;;;;;;5183864;27;20826;-76
2022/02/22 09:05:12;;;;;;;14.02;7.03;;;;;;;;;;5178962;27;20202;-76
2022/02/22 09:07:38;;;;;;;17.83;6.45;;;;;;;;;;5151523;27;20188;-76
2022/02/22 09:10:05;;;;;;;12.43;5.07;;;;;;;;;;5124605;27;20217;-76
2022/02/22 09:12:32;;;;;;;18.67;6.15;;;;;;;;;;5106719;28;20616;-77
2022/02/22 09:14:58;;;;;;;21.98;6.90;;;;;;;;;;5104426;28;20175;-76
2022/02/22 09:17:24;;;;;;;20.80;6.50;;;;;;;;;;5124720;28;20608;-76
2022/02/22 09:19:50;;;;;;;14.98;6.85;;;;;;;;;;5088948;28;20612;-75
2022/02/22 09:22:16;;;;;;;11.93;5.37;;;;;;;;;;4770818;29;20236;-77
2022/02/22 09:27:28;;;;;;;10.02;4.43;;;;;;;;;;5181596;27;20482;-76
2022/02/22 09:29:54;;;;;;;11.23;4.43;;;;;;;;;;5179907;27;20190;-75
2022/02/22 09:32:20;;;;;;;10.73;5.00;;;;;;;;;;5190188;27;20546;-76
2022/02/22 09:34:46;;;;;;;11.20;3.58;;;;;;;;;;5190002;27;20431;-77
2022/02/22 09:37:12;;;;;;;20.20;5.30;;;;;;;;;;5172172;27;20193;-78
2022/02/22 09:39:39;;;;;;;12.63;4.60;;;;;;;;;;5178050;27;20426;-75
2022/02/22 09:42:08;;;;;;;11.32;3.50;;;;;;;;;;5145441;27;20482;-76
2022/02/22 09:44:38;;;;;;;8.50;4.60;;;;;;;;;;5131603;27;20534;-76
2022/02/22 09:47:05;;;;;;;9.85;4.47;;;;;;;;;;5051908;28;20275;-77
2022/02/22 09:52:11;;;;;;;9.65;3.97;;;;;;;;;;5192864;27;20486;-75
2022/02/22 09:54:37;;;;;;;11.57;3.50;;;;;;;;;;5170595;27;20214;-75
2022/02/22 09:57:03;;;;;;;11.57;3.50;;;;;;;;;;5171914;27;20204;-74
2022/02/22 09:59:29;;;;;;;8.77;3.30;;;;;;;;;;5170539;27;20438;-76
2022/02/22 10:01:56;;;;;;;18.15;3.30;;;;;;;;;;5116977;27;20241;-75
2022/02/22 10:04:23;;;;;;;7.03;2.80;;;;;;;;;;5090433;28;20212;-76
2022/02/22 10:06:50;;;;;;;7.70;2.90;;;;;;;;;;5016644;28;20227;-77
2022/02/22 10:09:16;;;;;;;13.73;3.10;;;;;;;;;;5031973;28;20221;-76
2022/02/22 10:11:46;;;;;;;10.35;2.97;;;;;;;;;;5045413;28;20229;-77
2022/02/22 10:16:55;;;;;;;12.98;2.70;;;;;;;;;;5174074;27;20494;-76
2022/02/22 10:19:24;;;;;;;17.05;3.55;;;;;;;;;;5165249;27;20198;-76
2022/02/22 10:21:57;;;;;;;12.63;2.95;;;;;;;;;;5176660;27;20234;-77
2022/02/22 10:24:24;;;;;;;9.13;3.03;;;;;;;;;;5164257;27;20217;-77
2022/02/22 10:26:59;;;;;;;16.52;2.53;;;;;;;;;;5107882;28;20269;-79
2022/02/22 10:29:25;;;;;;;11.73;3.05;;;;;;;;;;5094555;28;20231;-75
2022/02/22 10:31:51;;;;;;;18.33;4.10;;;;;;;;;;5070463;28;20205;-75
2022/02/22 10:34:17;;;;;;;8.35;2.78;;;;;;;;;;5054951;28;20188;-76
2022/02/22 10:36:48;;;;;;;9.30;3.38;;;;;;;;;;5029171;28;20229;-76
2022/02/22 10:41:36;;;;;;;11.18;2.50;;;;;;;;;;5193134;27;20289;-76
2022/02/22 10:44:03;;;;;;;12.77;3.75;;;;;;;;;;5168713;27;20630;-75
2022/02/22 10:46:32;;;;;;;12.13;3.15;;;;;;;;;;5176764;27;20255;-77
2022/02/22 10:49:03;;;;;;;11.10;2.80;;;;;;;;;;5170179;27;20599;-75
2022/02/22 10:51:40;;;;;;;17.58;4.00;;;;;;;;;;5137094;27;20198;-76
2022/02/22 10:54:07;;;;;;;9.77;2.90;;;;;;;;;;5115365;28;20214;-75
2022/02/22 10:56:33;;;;;;;12.40;3.35;;;;;;;;;;5057632;28;20209;-77
2022/02/22 10:59:00;;;;;;;23.88;3.88;;;;;;;;;;5001888;28;20204;-75
2022/02/22 11:01:26;;;;;;;17.98;4.07;;;;;;;;;;4976810;28;20219;-76
2022/02/22 11:06:25;;;;;;;10.30;3.03;;;;;;;;;;5178282;27;20308;-75
2022/02/22 11:08:52;;;;;;;16.90;4.43;;;;;;;;;;5187904;27;20721;-75
2022/02/22 11:11:21;;;;;;;15.75;2.95;;;;;;;;;;5191662;27;20260;-75
2022/02/22 11:14:04;;;;;;;22.38;3.70;;;;;;;;;;5181503;27;20662;-76
2022/02/22 11:16:43;;;;;;;12.75;2.88;;;;;;;;;;5111856;28;20219;-75
2022/02/22 11:19:36;;;;;;;15.23;3.47;;;;;;;;;;5055522;28;20193;-76
2022/02/22 11:22:12;;;;;;;14.52;3.70;;;;;;;;;;4945281;28;20299;-76
2022/02/22 11:24:48;;;;;;;14.02;3.88;;;;;;;;;;4917102;29;20298;-77
2022/02/22 11:30:38;;;;;;;23.63;3.88;;;;;;;;;;5192590;27;20485;-76
2022/02/22 11:33:12;;;;;;;17.13;3.10;;;;;;;;;;5187791;27;20194;-75
2022/02/22 11:35:53;;;;;;;16.85;3.55;;;;;;;;;;5147738;27;20231;-76
2022/02/22 11:38:19;;;;;;;14.18;3.30;;;;;;;;;;5126939;27;20526;-77
2022/02/22 11:40:49;;;;;;;14.02;4.70;;;;;;;;;;5059861;28;20223;-76
2022/02/22 11:43:17;;;;;;;12.95;3.25;;;;;;;;;;4995182;28;20195;-77
2022/02/22 11:45:44;;;;;;;16.45;3.95;;;;;;;;;;5002590;28;20246;-76
2022/02/22 11:48:19;;;;;;;16.10;3.30;;;;;;;;;;4969106;28;20193;-76
2022/02/22 11:50:47;;;;;;;12.40;3.63;;;;;;;;;;4787682;29;20566;-75
2022/02/22 11:55:07;;;;;;;14.90;2.90;;;;;;;;;;5148145;27;20497;-76
2022/02/22 11:57:47;;;;;;;16.58;3.88;;;;;;;;;;5129492;27;20202;-76
2022/02/22 12:00:14;;;;;;;15.52;3.67;;;;;;;;;;5127442;27;20187;-76
2022/02/22 12:02:44;;;;;;;12.38;3.10;;;;;;;;;;5094267;28;20627;-77
2022/02/22 12:05:24;;;;;;;15.63;3.47;;;;;;;;;;5081637;28;20222;-77
2022/02/22 12:08:03;;;;;;;16.38;3.15;;;;;;;;;;5043659;28;20287;-76
2022/02/22 12:10:31;;;;;;;14.43;3.55;;;;;;;;;;4975362;28;25067;-77
2022/02/22 12:13:10;;;;;;;14.30;3.40;;;;;;;;;;4988597;28;20220;-76
2022/02/22 12:15:36;;;;;;;17.00;3.97;;;;;;;;;;4851166;29;20221;-77
2022/02/22 12:19:32;;;;;;;15.55;3.58;;;;;;;;;;5193040;27;20497;-75
2022/02/22 12:21:57;;;;;;;12.75;2.53;;;;;;;;;;5187760;27;20545;-77
2022/02/22 12:24:24;;;;;;;11.53;3.43;;;;;;;;;;5192213;27;20194;-76
2022/02/22 12:26:50;;;;;;;12.98;3.38;;;;;;;;;;5173589;27;20474;-77
2022/02/22 12:29:16;;;;;;;11.60;3.45;;;;;;;;;;5112331;27;20223;-76
2022/02/22 12:31:43;;;;;;;13.75;3.88;;;;;;;;;;5066285;28;20246;-78
2022/02/22 12:34:11;;;;;;;13.00;2.90;;;;;;;;;;5075936;28;20233;-76
2022/02/22 12:36:38;;;;;;;12.70;2.80;;;;;;;;;;5048928;28;20218;-76
2022/02/22 12:39:05;;;;;;;10.13;3.15;;;;;;;;;;4938029;28;20241;-75
2022/02/22 12:44:13;;;;;;;10.77;3.30;;;;;;;;;;5186169;27;20496;-77
2022/02/22 12:46:40;;;;;;;10.75;3.03;;;;;;;;;;5157724;27;20206;-76
2022/02/22 12:49:07;;;;;;;9.75;3.15;;;;;;;;;;5164618;27;20200;-77
2022/02/22 12:51:33;;;;;;;11.35;2.80;;;;;;;;;;5171676;27;20601;-76
2022/02/22 12:54:00;;;;;;;9.55;2.75;;;;;;;;;;5164476;27;20189;-77
2022/02/22 12:56:27;;;;;;;9.00;1.98;;;;;;;;;;5125917;27;20627;-77
2022/02/22 12:58:53;;;;;;;14.18;3.20;;;;;;;;;;5156732;27;20599;-77
2022/02/22 13:01:19;;;;;;;8.37;2.00;;;;;;;;;;5133514;27;20197;-76
2022/02/22 13:03:46;;;;;;;13.20;3.30;;;;;;;;;;5050999;27;20475;-76
2022/02/22 13:08:45;;;;;;;9.35;2.30;;;;;;;;;;5184093;27;20485;-80
2022/02/22 13:11:11;;;;;;;9.65;2.63;;;;;;;;;;5188010;27;20212;-80
2022/02/22 13:13:38;;;;;;;5.70;2.05;;;;;;;;;;5192208;27;20190;-79
2022/02/22 13:16:09;;;;;;;12.95;2.40;;;;;;;;;;5179827;27;20217;-79
2022/02/22 13:18:35;;;;;;;9.00;3.55;;;;;;;;;;5151810;27;20198;-79
2022/02/22 13:21:12;;;;;;;6.68;1.90;;;;;;;;;;5152460;27;20185;-79
2022/02/22 13:23:38;;;;;;;6.70;2.17;;;;;;;;;;5135733;27;21422;-78
2022/02/22 13:26:05;;;;;;;8.93;2.17;;;;;;;;;;5071704;28;20553;-77
2022/02/22 13:28:35;;;;;;;7.15;2.10;;;;;;;;;;5035301;28;20743;-78
2022/02/22 13:33:41;;;;;;;6.85;1.35;;;;;;;;;;5193226;27;20476;-79
2022/02/22 13:36:14;;;;;;;4.60;1.55;;;;;;;;;;5158508;27;20617;-78
2022/02/22 13:38:40;;;;;;;4.25;1.65;;;;;;;;;;5171158;27;20192;-76
2022/02/22 13:41:14;;;;;;;3.50;1.70;;;;;;;;;;5141514;27;20649;-79
2022/02/22 13:43:40;;;;;;;12.93;2.15;;;;;;;;;;5068089;28;20205;-76
2022/02/22 13:46:08;;;;;;;5.80;1.60;;;;;;;;;;5021501;28;20265;-75
2022/02/22 13:48:34;;;;;;;7.63;2.60;;;;;;;;;;5041958;28;20202;-77
2022/02/22 13:51:07;;;;;;;3.10;1.15;;;;;;;;;;4989475;28;20281;-77
2022/02/22 13:53:34;;;;;;;2.20;1.45;;;;;;;;;;4933955;28;20216;-78
2022/02/22 13:58:07;;;;;;;5.30;1.63;;;;;;;;;;5193397;27;20498;-78
2022/02/22 14:00:46;;;;;;;4.25;2.08;;;;;;;;;;5188347;27;20556;-77
2022/02/22 14:03:12;;;;;;;3.97;1.70;;;;;;;;;;5169726;27;20588;-76
2022/02/22 14:05:38;;;;;;;6.10;1.20;;;;;;;;;;5142697;27;20727;-78
2022/02/22 14:08:05;;;;;;;4.32;1.45;;;;;;;;;;5121502;27;20199;-77
2022/02/22 14:10:33;;;;;;;2.45;1.63;;;;;;;;;;5106700;28;20191;-77
2022/02/22 14:13:00;;;;;;;5.20;1.38;;;;;;;;;;5135434;27;20264;-77
2022/02/22 14:15:26;;;;;;;3.97;1.65;;;;;;;;;;5121158;27;20211;-76
2022/02/22 14:17:52;;;;;;;5.20;1.60;;;;;;;;;;5014696;28;20218;-75
2022/02/22 14:22:59;;;;;;;4.88;1.55;;;;;;;;;;5192922;27;21001;-76
2022/02/22 14:25:27;;;;;;;7.47;1.50;;;;;;;;;;5182014;27;20240;-79
2022/02/22 14:27:53;;;;;;;3.08;1.42;;;;;;;;;;5171149;27;20530;-79
2022/02/22 14:30:19;;;;;;;3.22;1.60;;;;;;;;;;5150906;27;20197;-79
2022/02/22 14:32:45;;;;;;;2.77;1.50;;;;;;;;;;5157118;27;20247;-79
2022/02/22 14:35:13;;;;;;;5.97;1.80;;;;;;;;;;5142451;27;20470;-79
2022/02/22 14:37:39;;;;;;;6.10;1.85;;;;;;;;;;5166041;27;20429;-79
2022/02/22 14:40:05;;;;;;;6.25;1.50;;;;;;;;;;5060010;27;20653;-78
2022/02/22 14:42:31;;;;;;;2.75;1.23;;;;;;;;;;4946950;28;20762;-79
2022/02/22 14:47:25;;;;;;;1.60;1.00;;;;;;;;;;5193090;27;20473;-79
2022/02/22 14:49:51;;;;;;;3.43;1.60;;;;;;;;;;5187828;27;20193;-79
2022/02/22 14:52:20;;;;;;;3.37;1.80;;;;;;;;;;5172378;27;20804;-78
2022/02/22 14:54:47;;;;;;;4.68;1.40;;;;;;;;;;5191028;27;20441;-79
2022/02/22 14:57:13;;;;;;;3.70;1.45;;;;;;;;;;5161410;27;20217;-78
2022/02/22 14:59:39;;;;;;;4.40;1.75;;;;;;;;;;5154076;27;20246;-78
2022/02/22 15:02:05;;;;;;;3.65;1.13;;;;;;;;;;5108851;27;20199;-79
2022/02/22 15:04:32;;;;;;;3.87;1.70;;;;;;;;;;5045281;28;20198;-79
2022/02/22 15:06:58;;;;;;;3.92;1.60;;;;;;;;;;5022481;28;20509;-78
2022/02/22 15:12:02;;;;;;;2.17;1.58;;;;;;;;;;5193337;27;20488;-79
2022/02/22 15:14:28;;;;;;;3.53;1.60;;;;;;;;;;5188145;27;20183;-78
2022/02/22 15:16:54;;;;;;;2.90;1.23;;;;;;;;;;5153765;27;21092;-79
2022/02/22 15:19:20;;;;;;;5.57;2.00;;;;;;;;;;5165878;27;20506;-80
2022/02/22 15:21:46;;;;;;;3.60;1.77;;;;;;;;;;5073663;28;20934;-78
2022/02/22 15:24:12;;;;;;;6.32;1.83;;;;;;;;;;5017091;28;20189;-80
2022/02/22 15:26:38;;;;;;;6.25;2.17;;;;;;;;;;5062570;28;20204;-78
2022/02/22 15:29:04;;;;;;;3.85;1.67;;;;;;;;;;4994932;28;20252;-79
2022/02/22 15:31:32;;;;;;;4.90;1.58;;;;;;;;;;4850652;29;20235;-80
2022/02/22 15:35:57;;;;;;;4.72;1.73;;;;;;;;;;5180384;27;20520;-80
2022/02/22 15:38:23;;;;;;;7.72;2.25;;;;;;;;;;5174411;27;20197;-78
2022/02/22 15:40:51;;;;;;;8.20;1.90;;;;;;;;;;5169224;27;20619;-77
2022/02/22 15:43:19;;;;;;;10.48;2.47;;;;;;;;;;5135549;27;20203;-80
2022/02/22 15:45:45;;;;;;;5.93;2.08;;;;;;;;;;5113948;28;20224;-79
2022/02/22 15:48:11;;;;;;;3.90;2.20;;;;;;;;;;5062499;28;20211;-78
2022/02/22 15:50:37;;;;;;;5.95;1.83;;;;;;;;;;5032755;28;20202;-76
2022/02/22 15:53:04;;;;;;;5.63;1.90;;;;;;;;;;4988115;28;20678;-78
2022/02/22 15:55:31;;;;;;;5.32;2.03;;;;;;;;;;4931664;28;20481;-77
2022/02/22 15:59:40;;;;;;;5.80;1.80;;;;;;;;;;5185270;27;20487;-81
2022/02/22 16:02:06;;;;;;;7.43;2.20;;;;;;;;;;5154860;27;20202;-79
2022/02/22 16:04:33;;;;;;;7.60;1.80;;;;;;;;;;5171149;27;20923;-78
2022/02/22 16:06:59;;;;;;;6.90;2.33;;;;;;;;;;5169429;27;20213;-80
2022/02/22 16:09:25;;;;;;;6.38;2.83;;;;;;;;;;5140754;27;20190;-79
2022/02/22 16:11:51;;;;;;;10.30;2.23;;;;;;;;;;5142799;27;20265;-79
2022/02/22 16:14:18;;;;;;;5.82;2.17;;;;;;;;;;5110771;28;20446;-81